sensor_id;sensor_type;location;lat;lon;timestamp;pressure;altitude;pressure_sealevel;temperature;humidity
21359;BME280;13506;50.852;20.632;2023-05-07T00:01:52;98421.78;;;5.36;100.00
21359;BME280;13506;50.852;20.632;2023-05-07T00:04:21;98420.69;;;5.58;100.00
21359;BME280;13506;50.852;20.632;2023-05-07T00:06:49;98426.81;;;5.57;100.00
21359;BME280;13506;50.852;20.632;2023-05-07T00:09:17;98423.63;;;5.52;100.00
21359;BME280;13506;50.852;20.632;2023-05-07T00:11:45;98424.25;;;5.39;100.00
21359;BME280;13506;50.852;20.632;2023-05-07T00:14:15;98415.84;;;5.52;100.00
21359;BME280;13506;50.852;20.632;2023-05-07T00:16:43;98420.50;;;5.62;100.00
21359;BME280;13506;50.852;20.632;2023-05-07T00:19:11;98423.63;;;5.52;100.00
21359;BME280;13506;50.852;20.632;2023-05-07T00:21:39;98403.94;;;5.48;100.00
21359;BME280;13506;50.852;20.632;2023-05-07T00:24:07;98414.84;;;5.54;100.00
21359;BME280;13506;50.852;20.632;2023-05-07T00:26:35;98420.66;;;5.42;100.00
21359;BME280;13506;50.852;20.632;2023-05-07T00:29:03;98420.94;;;5.53;100.00
21359;BME280;13506;50.852;20.632;2023-05-07T00:31:32;98416.06;;;5.64;100.00
21359;BME280;13506;50.852;20.632;2023-05-07T00:34:00;98420.84;;;5.72;100.00
21359;BME280;13506;50.852;20.632;2023-05-07T00:36:29;98421.34;;;5.79;100.00
21359;BME280;13506;50.852;20.632;2023-05-07T00:38:58;98424.50;;;5.68;100.00
21359;BME280;13506;50.852;20.632;2023-05-07T00:41:27;98429.56;;;5.36;100.00
21359;BME280;13506;50.852;20.632;2023-05-07T00:43:55;98429.78;;;5.49;100.00
21359;BME280;13506;50.852;20.632;2023-05-07T00:46:23;98438.34;;;5.34;100.00
21359;BME280;13506;50.852;20.632;2023-05-07T00:48:54;98436.97;;;5.44;100.00
21359;BME280;13506;50.852;20.632;2023-05-07T00:51:22;98436.91;;;5.45;100.00
21359;BME280;13506;50.852;20.632;2023-05-07T00:53:51;98435.75;;;5.34;100.00
21359;BME280;13506;50.852;20.632;2023-05-07T00:56:20;98438.72;;;5.26;100.00
21359;BME280;13506;50.852;20.632;2023-05-07T00:58:48;98430.31;;;5.38;100.00
21359;BME280;13506;50.852;20.632;2023-05-07T01:01:16;98442.22;;;5.25;100.00
21359;BME280;13506;50.852;20.632;2023-05-07T01:03:44;98447.13;;;5.31;100.00
21359;BME280;13506;50.852;20.632;2023-05-07T01:06:14;98440.56;;;5.41;100.00
21359;BME280;13506;50.852;20.632;2023-05-07T01:08:43;98453.72;;;5.19;100.00
21359;BME280;13506;50.852;20.632;2023-05-07T01:11:12;98448.78;;;5.32;100.00
21359;BME280;13506;50.852;20.632;2023-05-07T01:13:41;98446.50;;;5.26;100.00
21359;BME280;13506;50.852;20.632;2023-05-07T01:16:10;98451.91;;;5.21;100.00
21359;BME280;13506;50.852;20.632;2023-05-07T01:18:38;98455.44;;;5.20;100.00
21359;BME280;13506;50.852;20.632;2023-05-07T01:21:07;98454.91;;;5.14;100.00
21359;BME280;13506;50.852;20.632;2023-05-07T01:23:40;98456.38;;;5.00;100.00
21359;BME280;13506;50.852;20.632;2023-05-07T01:26:09;98461.28;;;4.88;100.00
21359;BME280;13506;50.852;20.632;2023-05-07T01:28:37;98453.78;;;4.81;100.00
21359;BME280;13506;50.852;20.632;2023-05-07T01:31:05;98461.66;;;4.80;100.00
21359;BME280;13506;50.852;20.632;2023-05-07T01:33:37;98465.63;;;4.87;100.00
21359;BME280;13506;50.852;20.632;2023-05-07T01:36:07;98448.81;;;4.96;100.00
21359;BME280;13506;50.852;20.632;2023-05-07T01:38:37;98472.88;;;4.99;100.00
21359;BME280;13506;50.852;20.632;2023-05-07T01:41:08;98466.19;;;4.94;100.00
21359;BME280;13506;50.852;20.632;2023-05-07T01:43:37;98465.84;;;5.01;100.00
21359;BME280;13506;50.852;20.632;2023-05-07T01:46:05;98470.97;;;4.84;100.00
21359;BME280;13506;50.852;20.632;2023-05-07T01:48:34;98472.09;;;4.97;100.00
21359;BME280;13506;50.852;20.632;2023-05-07T01:51:03;98467.69;;;4.99;100.00
21359;BME280;13506;50.852;20.632;2023-05-07T01:53:36;98460.53;;;4.66;100.00
21359;BME280;13506;50.852;20.632;2023-05-07T01:56:04;98471.75;;;4.86;100.00
21359;BME280;13506;50.852;20.632;2023-05-07T01:58:35;98472.09;;;4.97;100.00
21359;BME280;13506;50.852;20.632;2023-05-07T02:01:03;98464.31;;;4.97;100.00
21359;BME280;13506;50.852;20.632;2023-05-07T02:03:32;98478.03;;;4.99;100.00
21359;BME280;13506;50.852;20.632;2023-05-07T02:06:08;98474.97;;;4.91;100.00
21359;BME280;13506;50.852;20.632;2023-05-07T02:08:40;98478.59;;;4.87;100.00
21359;BME280;13506;50.852;20.632;2023-05-07T02:11:09;98480.25;;;4.88;100.00
21359;BME280;13506;50.852;20.632;2023-05-07T02:13:38;98484.69;;;4.86;100.00
21359;BME280;13506;50.852;20.632;2023-05-07T02:16:06;98474.16;;;4.89;100.00
21359;BME280;13506;50.852;20.632;2023-05-07T02:18:35;98481.13;;;5.08;100.00
21359;BME280;13506;50.852;20.632;2023-05-07T02:21:03;98484.25;;;5.14;100.00
21359;BME280;13506;50.852;20.632;2023-05-07T02:23:31;98483.72;;;5.25;100.00
21359;BME280;13506;50.852;20.632;2023-05-07T02:25:59;98485.34;;;5.27;100.00
21359;BME280;13506;50.852;20.632;2023-05-07T02:28:27;98491.81;;;5.36;100.00
21359;BME280;13506;50.852;20.632;2023-05-07T02:31:05;98486.63;;;5.36;100.00
21359;BME280;13506;50.852;20.632;2023-05-07T02:33:34;98488.00;;;5.26;100.00
21359;BME280;13506;50.852;20.632;2023-05-07T02:36:07;98491.50;;;5.25;100.00
21359;BME280;13506;50.852;20.632;2023-05-07T02:38:36;98499.41;;;5.22;100.00
21359;BME280;13506;50.852;20.632;2023-05-07T02:41:05;98491.66;;;5.22;100.00
21359;BME280;13506;50.852;20.632;2023-05-07T02:43:33;98485.34;;;5.27;100.00
21359;BME280;13506;50.852;20.632;2023-05-07T02:46:03;98500.19;;;5.24;100.00
21359;BME280;13506;50.852;20.632;2023-05-07T02:48:34;98500.81;;;5.12;100.00
21359;BME280;13506;50.852;20.632;2023-05-07T02:51:03;98496.28;;;5.15;100.00
21359;BME280;13506;50.852;20.632;2023-05-07T02:53:33;98495.94;;;5.23;100.00
21359;BME280;13506;50.852;20.632;2023-05-07T02:56:01;98500.66;;;5.32;100.00
21359;BME280;13506;50.852;20.632;2023-05-07T02:58:29;98492.75;;;5.35;100.00
21359;BME280;13506;50.852;20.632;2023-05-07T03:00:58;98497.94;;;5.35;100.00
21359;BME280;13506;50.852;20.632;2023-05-07T03:03:39;98492.03;;;5.14;100.00
21359;BME280;13506;50.852;20.632;2023-05-07T03:06:07;98492.13;;;5.30;100.00
21359;BME280;13506;50.852;20.632;2023-05-07T03:08:36;98499.34;;;5.23;100.00
21359;BME280;13506;50.852;20.632;2023-05-07T03:11:04;98499.59;;;5.19;100.00
21359;BME280;13506;50.852;20.632;2023-05-07T03:13:32;98496.22;;;5.17;100.00
21359;BME280;13506;50.852;20.632;2023-05-07T03:16:00;98512.72;;;5.16;100.00
21359;BME280;13506;50.852;20.632;2023-05-07T03:18:28;98514.19;;;5.02;100.00
21359;BME280;13506;50.852;20.632;2023-05-07T03:20:58;98507.03;;;5.08;100.00
21359;BME280;13506;50.852;20.632;2023-05-07T03:23:26;98518.25;;;5.08;100.00
21359;BME280;13506;50.852;20.632;2023-05-07T03:25:54;98524.06;;;4.94;100.00
21359;BME280;13506;50.852;20.632;2023-05-07T03:28:22;98528.97;;;5.00;100.00
21359;BME280;13506;50.852;20.632;2023-05-07T03:30:55;98525.47;;;5.01;100.00
21359;BME280;13506;50.852;20.632;2023-05-07T03:33:23;98539.97;;;5.05;100.00
21359;BME280;13506;50.852;20.632;2023-05-07T03:35:51;98543.34;;;5.08;100.00
21359;BME280;13506;50.852;20.632;2023-05-07T03:38:25;98537.16;;;5.10;100.00
21359;BME280;13506;50.852;20.632;2023-05-07T03:40:54;98538.66;;;5.16;100.00
21359;BME280;13506;50.852;20.632;2023-05-07T03:43:22;98540.63;;;4.90;100.00
21359;BME280;13506;50.852;20.632;2023-05-07T03:45:58;98545.22;;;4.85;100.00
21359;BME280;13506;50.852;20.632;2023-05-07T03:48:28;98531.34;;;4.86;100.00
21359;BME280;13506;50.852;20.632;2023-05-07T03:50:58;98545.56;;;4.96;100.00
21359;BME280;13506;50.852;20.632;2023-05-07T03:53:32;98548.56;;;4.87;100.00
21359;BME280;13506;50.852;20.632;2023-05-07T03:56:00;98547.25;;;4.78;100.00
21359;BME280;13506;50.852;20.632;2023-05-07T03:58:32;98550.44;;;4.64;100.00
21359;BME280;13506;50.852;20.632;2023-05-07T04:01:06;98554.84;;;4.62;100.00
21359;BME280;13506;50.852;20.632;2023-05-07T04:03:35;98550.38;;;4.47;100.00
21359;BME280;13506;50.852;20.632;2023-05-07T04:06:04;98553.47;;;4.55;100.00
21359;BME280;13506;50.852;20.632;2023-05-07T04:08:36;98556.50;;;4.65;100.00
21359;BME280;13506;50.852;20.632;2023-05-07T04:11:06;98568.41;;;4.69;100.00
21359;BME280;13506;50.852;20.632;2023-05-07T04:13:36;98562.63;;;4.81;100.00
21359;BME280;13506;50.852;20.632;2023-05-07T04:16:06;98566.66;;;4.70;100.00
21359;BME280;13506;50.852;20.632;2023-05-07T04:18:36;98562.84;;;4.58;100.00
21359;BME280;13506;50.852;20.632;2023-05-07T04:21:05;98569.91;;;4.73;100.00
21359;BME280;13506;50.852;20.632;2023-05-07T04:23:38;98569.16;;;4.71;100.00
21359;BME280;13506;50.852;20.632;2023-05-07T04:26:11;98575.69;;;4.80;100.00
21359;BME280;13506;50.852;20.632;2023-05-07T04:28:43;98569.16;;;4.71;100.00
21359;BME280;13506;50.852;20.632;2023-05-07T04:31:11;98572.38;;;4.76;100.00
21359;BME280;13506;50.852;20.632;2023-05-07T04:33:41;98567.81;;;4.81;100.00
21359;BME280;13506;50.852;20.632;2023-05-07T04:36:12;98575.41;;;4.86;100.00
21359;BME280;13506;50.852;20.632;2023-05-07T04:38:57;98578.50;;;4.94;100.00
21359;BME280;13506;50.852;20.632;2023-05-07T04:41:25;98576.56;;;4.99;100.00
21359;BME280;13506;50.852;20.632;2023-05-07T04:43:54;98585.13;;;5.01;100.00
21359;BME280;13506;50.852;20.632;2023-05-07T04:46:24;98589.47;;;4.80;100.00
21359;BME280;13506;50.852;20.632;2023-05-07T04:48:54;98584.47;;;4.96;100.00
21359;BME280;13506;50.852;20.632;2023-05-07T04:51:22;98588.59;;;5.00;100.00
21359;BME280;13506;50.852;20.632;2023-05-07T04:53:50;98592.25;;;4.96;100.00
21359;BME280;13506;50.852;20.632;2023-05-07T04:56:19;98602.34;;;5.02;100.00
21359;BME280;13506;50.852;20.632;2023-05-07T04:58:48;98599.91;;;4.79;100.00
21359;BME280;13506;50.852;20.632;2023-05-07T05:01:19;98608.00;;;4.71;100.00
21359;BME280;13506;50.852;20.632;2023-05-07T05:03:48;98601.88;;;4.74;100.00
21359;BME280;13506;50.852;20.632;2023-05-07T05:06:16;98609.84;;;4.88;100.00
21359;BME280;13506;50.852;20.632;2023-05-07T05:08:45;98610.16;;;4.82;100.00
21359;BME280;13506;50.852;20.632;2023-05-07T05:11:13;98606.53;;;4.86;100.00
21359;BME280;13506;50.852;20.632;2023-05-07T05:13:43;98616.50;;;4.95;100.00
21359;BME280;13506;50.852;20.632;2023-05-07T05:16:17;98621.69;;;4.95;100.00
21359;BME280;13506;50.852;20.632;2023-05-07T05:18:45;98620.41;;;5.04;100.00
21359;BME280;13506;50.852;20.632;2023-05-07T05:21:16;98615.09;;;5.07;100.00
21359;BME280;13506;50.852;20.632;2023-05-07T05:23:47;98636.41;;;4.95;100.00
21359;BME280;13506;50.852;20.632;2023-05-07T05:26:19;98643.13;;;4.99;100.00
21359;BME280;13506;50.852;20.632;2023-05-07T05:28:50;98650.75;;;4.81;100.00
21359;BME280;13506;50.852;20.632;2023-05-07T05:31:21;98650.31;;;4.92;100.00
21359;BME280;13506;50.852;20.632;2023-05-07T05:33:50;98655.38;;;4.95;100.00
21359;BME280;13506;50.852;20.632;2023-05-07T05:36:18;98654.00;;;4.86;100.00
21359;BME280;13506;50.852;20.632;2023-05-07T05:38:48;98663.78;;;5.00;100.00
21359;BME280;13506;50.852;20.632;2023-05-07T05:41:17;98665.44;;;5.03;100.00
21359;BME280;13506;50.852;20.632;2023-05-07T05:43:45;98663.94;;;4.77;100.00
21359;BME280;13506;50.852;20.632;2023-05-07T05:46:14;98667.19;;;4.82;100.00
21359;BME280;13506;50.852;20.632;2023-05-07T05:48:42;98674.88;;;4.83;100.00
21359;BME280;13506;50.852;20.632;2023-05-07T05:51:12;98672.69;;;4.95;100.00
21359;BME280;13506;50.852;20.632;2023-05-07T05:53:40;98669.31;;;4.72;100.00
21359;BME280;13506;50.852;20.632;2023-05-07T05:56:09;98669.25;;;4.74;100.00
21359;BME280;13506;50.852;20.632;2023-05-07T05:58:40;98672.69;;;4.74;100.00
21359;BME280;13506;50.852;20.632;2023-05-07T06:01:09;98677.47;;;4.83;100.00
21359;BME280;13506;50.852;20.632;2023-05-07T06:03:39;98690.78;;;4.76;100.00
21359;BME280;13506;50.852;20.632;2023-05-07T06:06:13;98692.19;;;4.83;100.00
21359;BME280;13506;50.852;20.632;2023-05-07T06:08:43;98688.81;;;4.60;100.00
21359;BME280;13506;50.852;20.632;2023-05-07T06:11:13;98690.41;;;4.83;100.00
21359;BME280;13506;50.852;20.632;2023-05-07T06:13:44;98696.44;;;4.43;100.00
21359;BME280;13506;50.852;20.632;2023-05-07T06:16:12;98698.84;;;4.27;100.00
21359;BME280;13506;50.852;20.632;2023-05-07T06:18:43;98700.97;;;4.58;100.00
21359;BME280;13506;50.852;20.632;2023-05-07T06:21:14;98703.00;;;4.52;100.00
21359;BME280;13506;50.852;20.632;2023-05-07T06:23:42;98702.09;;;4.53;100.00
21359;BME280;13506;50.852;20.632;2023-05-07T06:26:11;98706.22;;;4.36;100.00
21359;BME280;13506;50.852;20.632;2023-05-07T06:28:42;98693.56;;;4.51;100.00
21359;BME280;13506;50.852;20.632;2023-05-07T06:31:14;98704.25;;;4.63;100.00
21359;BME280;13506;50.852;20.632;2023-05-07T06:33:47;98717.50;;;4.56;100.00
21359;BME280;13506;50.852;20.632;2023-05-07T06:36:16;98712.66;;;4.48;100.00
21359;BME280;13506;50.852;20.632;2023-05-07T06:38:45;98710.25;;;4.64;100.00
21359;BME280;13506;50.852;20.632;2023-05-07T06:41:13;98717.56;;;4.75;100.00
21359;BME280;13506;50.852;20.632;2023-05-07T06:43:42;98705.53;;;4.74;100.00
21359;BME280;13506;50.852;20.632;2023-05-07T06:46:26;98710.53;;;4.78;100.00
21359;BME280;13506;50.852;20.632;2023-05-07T06:48:56;98723.00;;;4.69;100.00
21359;BME280;13506;50.852;20.632;2023-05-07T06:51:25;98717.97;;;4.86;100.00
21359;BME280;13506;50.852;20.632;2023-05-07T06:53:54;98717.31;;;4.81;100.00
21359;BME280;13506;50.852;20.632;2023-05-07T06:56:22;98722.91;;;4.72;100.00
21359;BME280;13506;50.852;20.632;2023-05-07T06:58:51;98724.47;;;4.76;100.00
21359;BME280;13506;50.852;20.632;2023-05-07T07:01:19;98735.78;;;4.73;100.00
21359;BME280;13506;50.852;20.632;2023-05-07T07:03:47;98733.53;;;4.86;100.00
21359;BME280;13506;50.852;20.632;2023-05-07T07:06:17;98742.53;;;4.98;100.00
21359;BME280;13506;50.852;20.632;2023-05-07T07:08:47;98740.16;;;5.14;100.00
21359;BME280;13506;50.852;20.632;2023-05-07T07:11:17;98743.47;;;4.97;100.00
21359;BME280;13506;50.852;20.632;2023-05-07T07:13:45;98758.50;;;5.28;100.00
21359;BME280;13506;50.852;20.632;2023-05-07T07:16:13;98750.38;;;5.17;100.00
21359;BME280;13506;50.852;20.632;2023-05-07T07:18:42;98763.44;;;5.34;100.00
21359;BME280;13506;50.852;20.632;2023-05-07T07:21:10;98762.13;;;5.44;100.00
21359;BME280;13506;50.852;20.632;2023-05-07T07:23:40;98763.16;;;5.40;100.00
21359;BME280;13506;50.852;20.632;2023-05-07T07:26:08;98760.16;;;5.31;100.00
21359;BME280;13506;50.852;20.632;2023-05-07T07:28:42;98774.97;;;5.48;100.00
21359;BME280;13506;50.852;20.632;2023-05-07T07:31:11;98771.59;;;5.45;100.00
21359;BME280;13506;50.852;20.632;2023-05-07T07:33:39;98773.16;;;5.50;100.00
21359;BME280;13506;50.852;20.632;2023-05-07T07:36:08;98779.84;;;5.54;100.00
21359;BME280;13506;50.852;20.632;2023-05-07T07:38:37;98780.16;;;5.48;99.98
21359;BME280;13506;50.852;20.632;2023-05-07T07:41:08;98780.84;;;5.51;100.00
21359;BME280;13506;50.852;20.632;2023-05-07T07:43:37;98774.22;;;5.25;100.00
21359;BME280;13506;50.852;20.632;2023-05-07T07:46:05;98772.66;;;5.21;100.00
21359;BME280;13506;50.852;20.632;2023-05-07T07:48:34;98783.00;;;5.22;100.00
21359;BME280;13506;50.852;20.632;2023-05-07T07:51:01;98780.69;;;5.35;100.00
21359;BME280;13506;50.852;20.632;2023-05-07T07:53:30;98789.09;;;5.40;100.00
21359;BME280;13506;50.852;20.632;2023-05-07T07:55:58;98797.56;;;5.25;100.00
21359;BME280;13506;50.852;20.632;2023-05-07T07:58:30;98798.84;;;5.35;100.00
21359;BME280;13506;50.852;20.632;2023-05-07T08:00:58;98798.59;;;5.21;100.00
21359;BME280;13506;50.852;20.632;2023-05-07T08:03:27;98798.44;;;5.44;100.00
21359;BME280;13506;50.852;20.632;2023-05-07T08:05:58;98795.56;;;5.51;100.00
21359;BME280;13506;50.852;20.632;2023-05-07T08:08:27;98800.53;;;5.36;100.00
21359;BME280;13506;50.852;20.632;2023-05-07T08:10:55;98806.63;;;5.35;100.00
21359;BME280;13506;50.852;20.632;2023-05-07T08:13:30;98811.31;;;5.27;100.00
21359;BME280;13506;50.852;20.632;2023-05-07T08:16:00;98813.53;;;5.16;100.00
21359;BME280;13506;50.852;20.632;2023-05-07T08:18:28;98817.28;;;5.29;100.00
21359;BME280;13506;50.852;20.632;2023-05-07T08:20:58;98819.22;;;5.24;100.00
21359;BME280;13506;50.852;20.632;2023-05-07T08:23:27;98820.72;;;5.09;100.00
21359;BME280;13506;50.852;20.632;2023-05-07T08:25:56;98817.34;;;5.27;100.00
21359;BME280;13506;50.852;20.632;2023-05-07T08:28:25;98819.34;;;5.41;100.00
21359;BME280;13506;50.852;20.632;2023-05-07T08:30:55;98823.72;;;5.60;100.00
21359;BME280;13506;50.852;20.632;2023-05-07T08:33:27;98824.09;;;5.71;99.53
21359;BME280;13506;50.852;20.632;2023-05-07T08:35:55;98825.66;;;5.75;98.28
21359;BME280;13506;50.852;20.632;2023-05-07T08:38:23;98833.00;;;5.84;98.52
21359;BME280;13506;50.852;20.632;2023-05-07T08:40:52;98836.41;;;5.66;98.97
21359;BME280;13506;50.852;20.632;2023-05-07T08:43:22;98841.03;;;5.59;98.38
21359;BME280;13506;50.852;20.632;2023-05-07T08:45:56;98844.72;;;5.54;99.70
21359;BME280;13506;50.852;20.632;2023-05-07T08:48:30;98843.69;;;5.58;97.79
21359;BME280;13506;50.852;20.632;2023-05-07T08:51:06;98857.69;;;5.74;98.38
21359;BME280;13506;50.852;20.632;2023-05-07T08:53:36;98849.34;;;5.67;97.88
21359;BME280;13506;50.852;20.632;2023-05-07T08:56:05;98843.56;;;5.61;98.29
21359;BME280;13506;50.852;20.632;2023-05-07T08:58:35;98849.34;;;5.67;97.22
21359;BME280;13506;50.852;20.632;2023-05-07T09:01:08;98853.50;;;5.51;98.72
21359;BME280;13506;50.852;20.632;2023-05-07T09:03:38;98856.03;;;5.53;99.10
21359;BME280;13506;50.852;20.632;2023-05-07T09:06:07;98854.69;;;5.64;98.84
21359;BME280;13506;50.852;20.632;2023-05-07T09:08:36;98859.16;;;5.40;98.43
21359;BME280;13506;50.852;20.632;2023-05-07T09:11:05;98864.81;;;5.50;97.02
21359;BME280;13506;50.852;20.632;2023-05-07T09:13:34;98865.13;;;5.22;98.66
21359;BME280;13506;50.852;20.632;2023-05-07T09:16:14;98858.78;;;5.29;100.00
21359;BME280;13506;50.852;20.632;2023-05-07T09:18:45;98865.28;;;5.39;98.81
21359;BME280;13506;50.852;20.632;2023-05-07T09:21:16;98859.66;;;5.49;98.80
21359;BME280;13506;50.852;20.632;2023-05-07T09:23:47;98873.56;;;5.48;99.69
21359;BME280;13506;50.852;20.632;2023-05-07T09:26:16;98867.50;;;5.47;98.47
21359;BME280;13506;50.852;20.632;2023-05-07T09:28:45;98881.28;;;5.49;99.43
21359;BME280;13506;50.852;20.632;2023-05-07T09:31:15;98886.91;;;5.59;98.36
21359;BME280;13506;50.852;20.632;2023-05-07T09:33:44;98890.19;;;5.43;98.54
21359;BME280;13506;50.852;20.632;2023-05-07T09:36:13;98891.84;;;5.24;99.91
21359;BME280;13506;50.852;20.632;2023-05-07T09:38:42;98903.66;;;5.31;100.00
21359;BME280;13506;50.852;20.632;2023-05-07T09:41:12;98904.50;;;5.52;98.99
21359;BME280;13506;50.852;20.632;2023-05-07T09:43:54;98910.78;;;5.67;97.83
21359;BME280;13506;50.852;20.632;2023-05-07T09:46:30;98910.13;;;5.82;98.39
21359;BME280;13506;50.852;20.632;2023-05-07T09:49:02;98906.47;;;5.86;97.70
21359;BME280;13506;50.852;20.632;2023-05-07T09:51:41;98906.06;;;5.96;98.40
21359;BME280;13506;50.852;20.632;2023-05-07T09:54:11;98905.38;;;5.92;98.31
21359;BME280;13506;50.852;20.632;2023-05-07T09:56:43;98919.69;;;6.01;97.00
21359;BME280;13506;50.852;20.632;2023-05-07T09:59:14;98919.31;;;5.50;98.46
21359;BME280;13506;50.852;20.632;2023-05-07T10:01:45;98917.53;;;5.71;98.71
21359;BME280;13506;50.852;20.632;2023-05-07T10:04:14;98924.13;;;5.78;97.57
21359;BME280;13506;50.852;20.632;2023-05-07T10:06:45;98922.63;;;5.93;96.88
21359;BME280;13506;50.852;20.632;2023-05-07T10:09:14;98912.53;;;6.06;96.35
21359;BME280;13506;50.852;20.632;2023-05-07T10:11:43;98921.59;;;6.16;95.80
21359;BME280;13506;50.852;20.632;2023-05-07T10:14:12;98920.28;;;6.26;95.41
21359;BME280;13506;50.852;20.632;2023-05-07T10:16:43;98927.31;;;6.24;96.41
21359;BME280;13506;50.852;20.632;2023-05-07T10:19:16;98931.50;;;5.87;96.94
21359;BME280;13506;50.852;20.632;2023-05-07T10:21:54;98943.50;;;5.51;99.68
21359;BME280;13506;50.852;20.632;2023-05-07T10:24:26;98933.63;;;5.18;100.00
21359;BME280;13506;50.852;20.632;2023-05-07T10:27:00;98942.69;;;5.28;100.00
21359;BME280;13506;50.852;20.632;2023-05-07T10:29:36;98940.72;;;5.35;99.17
21359;BME280;13506;50.852;20.632;2023-05-07T10:32:27;98943.81;;;5.43;99.00
21359;BME280;13506;50.852;20.632;2023-05-07T10:35:00;98934.16;;;5.46;99.16
21359;BME280;13506;50.852;20.632;2023-05-07T10:37:30;98937.13;;;5.58;98.92
21359;BME280;13506;50.852;20.632;2023-05-07T10:39:59;98937.53;;;5.49;99.00
21359;BME280;13506;50.852;20.632;2023-05-07T10:42:30;98936.53;;;5.51;99.37
21359;BME280;13506;50.852;20.632;2023-05-07T10:45:12;98934.16;;;5.46;100.00
21359;BME280;13506;50.852;20.632;2023-05-07T10:48:06;98935.56;;;5.74;100.00
21359;BME280;13506;50.852;20.632;2023-05-07T10:50:35;98940.28;;;5.85;99.82
21359;BME280;13506;50.852;20.632;2023-05-07T10:53:29;98933.31;;;6.06;98.27
21359;BME280;13506;50.852;20.632;2023-05-07T10:56:26;98938.75;;;6.39;97.91
21359;BME280;13506;50.852;20.632;2023-05-07T10:59:30;98930.97;;;6.39;95.12
21359;BME280;13506;50.852;20.632;2023-05-07T11:02:05;98940.91;;;6.48;94.73
21359;BME280;13506;50.852;20.632;2023-05-07T11:05:19;98959.09;;;6.29;95.88
21359;BME280;13506;50.852;20.632;2023-05-07T11:07:55;98963.19;;;6.35;96.02
21359;BME280;13506;50.852;20.632;2023-05-07T11:10:49;98971.38;;;6.07;96.61
21359;BME280;13506;50.852;20.632;2023-05-07T11:13:46;98980.22;;;5.82;97.87
21359;BME280;13506;50.852;20.632;2023-05-07T11:16:24;98981.00;;;5.84;98.21
21359;BME280;13506;50.852;20.632;2023-05-07T11:19:05;98982.34;;;5.73;100.00
21359;BME280;13506;50.852;20.632;2023-05-07T11:21:41;98984.44;;;5.64;100.00
21359;BME280;13506;50.852;20.632;2023-05-07T11:24:39;98992.53;;;5.57;100.00
21359;BME280;13506;50.852;20.632;2023-05-07T11:27:07;98993.72;;;5.70;100.00
21359;BME280;13506;50.852;20.632;2023-05-07T11:29:37;98998.78;;;5.73;100.00
21359;BME280;13506;50.852;20.632;2023-05-07T11:32:13;98997.53;;;5.61;100.00
21359;BME280;13506;50.852;20.632;2023-05-07T11:34:50;98999.22;;;5.42;100.00
21359;BME280;13506;50.852;20.632;2023-05-07T11:37:22;98995.44;;;5.49;100.00
21359;BME280;13506;50.852;20.632;2023-05-07T11:40:03;98995.09;;;5.58;100.00
21359;BME280;13506;50.852;20.632;2023-05-07T11:42:33;99004.28;;;5.65;100.00
21359;BME280;13506;50.852;20.632;2023-05-07T11:45:02;99003.00;;;5.76;100.00
21359;BME280;13506;50.852;20.632;2023-05-07T11:47:31;98996.91;;;5.56;100.00
21359;BME280;13506;50.852;20.632;2023-05-07T11:50:03;98995.53;;;5.68;100.00
21359;BME280;13506;50.852;20.632;2023-05-07T11:52:34;99013.91;;;5.63;100.00
21359;BME280;13506;50.852;20.632;2023-05-07T11:55:03;99015.06;;;5.77;100.00
21359;BME280;13506;50.852;20.632;2023-05-07T11:57:33;99017.16;;;5.69;100.00
21359;BME280;13506;50.852;20.632;2023-05-07T12:00:02;99009.03;;;5.76;99.91
21359;BME280;13506;50.852;20.632;2023-05-07T12:02:39;99014.38;;;5.73;99.67
21359;BME280;13506;50.852;20.632;2023-05-07T12:05:09;99013.44;;;5.74;99.57
21359;BME280;13506;50.852;20.632;2023-05-07T12:07:38;99012.91;;;5.66;100.00
21359;BME280;13506;50.852;20.632;2023-05-07T12:10:08;99010.72;;;5.57;99.51
21359;BME280;13506;50.852;20.632;2023-05-07T12:12:39;99016.00;;;5.54;100.00
21359;BME280;13506;50.852;20.632;2023-05-07T12:15:09;99020.66;;;5.67;99.26
21359;BME280;13506;50.852;20.632;2023-05-07T12:17:37;99030.50;;;5.59;100.00
21359;BME280;13506;50.852;20.632;2023-05-07T12:20:07;99040.09;;;4.91;100.00
21359;BME280;13506;50.852;20.632;2023-05-07T12:22:37;99047.34;;;5.05;100.00
21359;BME280;13506;50.852;20.632;2023-05-07T12:25:06;99042.66;;;5.15;100.00
21359;BME280;13506;50.852;20.632;2023-05-07T12:27:37;99035.94;;;5.09;100.00
21359;BME280;13506;50.852;20.632;2023-05-07T12:30:10;99049.22;;;5.01;100.00
21359;BME280;13506;50.852;20.632;2023-05-07T12:32:39;99049.88;;;5.06;100.00
21359;BME280;13506;50.852;20.632;2023-05-07T12:35:08;99039.91;;;4.96;100.00
21359;BME280;13506;50.852;20.632;2023-05-07T12:37:37;99033.19;;;5.14;100.00
21359;BME280;13506;50.852;20.632;2023-05-07T12:40:07;99038.94;;;4.98;100.00
21359;BME280;13506;50.852;20.632;2023-05-07T12:42:36;99047.94;;;4.88;100.00
21359;BME280;13506;50.852;20.632;2023-05-07T12:45:11;99047.19;;;4.86;100.00
21359;BME280;13506;50.852;20.632;2023-05-07T12:47:43;99050.53;;;4.88;100.00
21359;BME280;13506;50.852;20.632;2023-05-07T12:50:11;99046.22;;;5.12;100.00
21359;BME280;13506;50.852;20.632;2023-05-07T12:52:42;99038.38;;;4.90;100.00
21359;BME280;13506;50.852;20.632;2023-05-07T12:55:13;99051.25;;;4.70;100.00
21359;BME280;13506;50.852;20.632;2023-05-07T12:57:45;99061.50;;;4.49;100.00
21359;BME280;13506;50.852;20.632;2023-05-07T13:00:16;99055.91;;;4.60;100.00
21359;BME280;13506;50.852;20.632;2023-05-07T13:02:44;99058.00;;;4.50;100.00
21359;BME280;13506;50.852;20.632;2023-05-07T13:05:13;99071.97;;;4.70;100.00
21359;BME280;13506;50.852;20.632;2023-05-07T13:07:53;99065.22;;;4.89;100.00
21359;BME280;13506;50.852;20.632;2023-05-07T13:10:22;99061.34;;;5.01;100.00
21359;BME280;13506;50.852;20.632;2023-05-07T13:12:50;99067.81;;;5.13;100.00